Hlavní strana
METAR-TAF:

METAR-TAF

Letiště :

Bonaire, Nizozemské Antily

zeměpisná šířka: 12-09N, zeměpisná délka: 068-17W, výška: 6 m

Aktuální stav počasí

Zpráva byla vytvořena před 40 minutami, v 17:55 UTC
Východní vítr 16 kt, proměnlivý mezi východoseverovýchodním a jihovýchodním
Teplota 29°C
Vlhkost vzduchu 74%
Tlak 1012 hPa
Viditelnost 10 km a více
Oblačno až skoro zataženo ve výšce 1600 ft
Oblačno až skoro zataženo ve výšce 2100 ft
Oblačno až skoro zataženo ve výšce 2600 ft

METAR: TNCB 061755Z 10016KT 070V130 9999 BKN016 BKN021 BKN026 29/24 Q1012

Čas: 14:35 (18:35 UTC)

Předpověď počasí

Zpráva byla vytvořena před 1 hodinou a 20 minutami, v 17:15 UTC
Předpověď platná od 06 v 18 UTC do 07 v 24 UTC
Východní vítr 17 kt
Viditelnost 10 km a více
Polojasno ve výšce 2000 ft

TAF: TNCB 061715Z 0618/0724 09017KT 9999 SCT020

Stav a předpovědi počasí z více než 4 000 letišť (zprávy METAR a TAF).

Červené a žluté tečky na mapě představují dostupné meteorologické stanice.

Když kurzor umístíte na tečku, zobrazí se název stanice.

Pak kliknutím zobrazíte stav a předpověď počasí.

Chcete-li změnit mapu, kliknutím na zelené tlačítko se znaménkem +mapu přiblížíte, kliknutím na zelené tlačítko se znaménkem – mapu oddálíte a kliknutím na zelené šipky přejdete na sousední mapy.


METAR-TAF: